createdAt,value
2017-06-13T00:01:07.385Z,7.40
2017-06-13T00:03:34.077Z,9.50
2017-06-13T00:06:00.036Z,6.13
2017-06-13T00:08:26.018Z,6.10
2017-06-13T00:10:52.738Z,9.33
2017-06-13T00:13:19.502Z,7.17
2017-06-13T00:15:45.460Z,6.63
2017-06-13T00:18:11.477Z,7.87
2017-06-13T00:20:37.445Z,6.87
2017-06-13T00:23:03.432Z,10.00
2017-06-13T00:25:29.413Z,6.70
2017-06-13T00:27:56.114Z,6.97
2017-06-13T00:30:22.157Z,7.53
2017-06-13T00:32:48.143Z,7.87
2017-06-13T00:35:14.089Z,7.27
2017-06-13T00:37:40.069Z,9.50
2017-06-13T00:40:06.018Z,7.90
2017-06-13T00:42:32.017Z,7.70
2017-06-13T00:44:57.974Z,6.90
2017-06-13T00:47:23.956Z,12.30
2017-06-13T00:49:49.988Z,10.50
2017-06-13T00:52:15.932Z,10.60
2017-06-13T00:54:42.666Z,7.27
2017-06-13T00:57:08.605Z,8.13
2017-06-13T00:59:34.558Z,9.63
2017-06-13T01:02:00.538Z,10.77
2017-06-13T01:04:26.544Z,8.33
2017-06-13T01:06:52.502Z,9.20
2017-06-13T01:09:18.462Z,8.57
2017-06-13T01:11:44.449Z,9.43
2017-06-13T01:14:10.405Z,12.60
2017-06-13T01:16:36.349Z,10.80
2017-06-13T01:19:02.336Z,11.90
2017-06-13T01:21:28.285Z,8.43
2017-06-13T01:23:54.326Z,9.00
2017-06-13T01:26:20.304Z,11.90
2017-06-13T01:28:46.298Z,8.20
2017-06-13T01:31:12.242Z,12.83
2017-06-13T01:33:38.220Z,9.50
2017-06-13T01:36:04.193Z,10.23
2017-06-13T01:38:30.888Z,14.67
2017-06-13T01:40:56.865Z,9.50
2017-06-13T01:43:22.818Z,8.00
2017-06-13T01:45:48.841Z,8.50
2017-06-13T01:48:14.833Z,11.50
2017-06-13T01:50:40.786Z,7.53
2017-06-13T01:53:06.740Z,12.33
2017-06-13T01:55:32.738Z,11.17
2017-06-13T01:57:58.698Z,11.03
2017-06-13T02:00:24.684Z,9.10
2017-06-13T02:02:50.939Z,8.23
2017-06-13T02:05:16.934Z,10.70
2017-06-13T02:07:42.886Z,7.67
2017-06-13T02:10:08.846Z,10.57
2017-06-13T02:12:34.872Z,8.03
2017-06-13T02:15:00.825Z,8.83
2017-06-13T02:17:26.789Z,9.73
2017-06-13T02:19:53.077Z,9.30
2017-06-13T02:22:19.807Z,9.57
2017-06-13T02:24:46.534Z,12.50
2017-06-13T02:27:20.187Z,11.37
2017-06-13T02:29:46.157Z,10.43
2017-06-13T02:32:12.162Z,8.60
2017-06-13T02:34:38.117Z,10.63
2017-06-13T02:37:04.081Z,10.60
2017-06-13T02:39:30.087Z,14.23
2017-06-13T02:41:56.062Z,10.30
2017-06-13T02:44:22.778Z,9.40
2017-06-13T02:46:48.839Z,9.17
2017-06-13T02:49:14.814Z,12.13
2017-06-13T02:51:41.518Z,12.40
2017-06-13T02:54:07.518Z,10.93
2017-06-13T02:56:33.473Z,10.13
2017-06-13T02:58:59.438Z,10.00
2017-06-13T03:01:25.475Z,9.00
2017-06-13T03:03:51.510Z,10.77
2017-06-13T03:06:17.469Z,12.00
2017-06-13T03:08:43.471Z,9.00
2017-06-13T03:11:09.451Z,9.50
2017-06-13T03:13:35.407Z,20.50
2017-06-13T03:16:01.386Z,10.60
2017-06-13T03:18:27.349Z,10.00
2017-06-13T03:20:53.321Z,10.43
2017-06-13T03:23:19.359Z,12.13
2017-06-13T03:25:45.314Z,12.17
2017-06-13T03:28:11.254Z,11.87
2017-06-13T03:30:37.294Z,13.90
2017-06-13T03:33:03.258Z,10.73
2017-06-13T03:35:29.221Z,11.23
2017-06-13T03:37:55.246Z,11.20
2017-06-13T03:40:21.246Z,13.37
2017-06-13T03:42:47.258Z,10.13
2017-06-13T03:45:13.211Z,10.60
2017-06-13T03:47:39.174Z,9.27
2017-06-13T03:50:05.190Z,11.77
2017-06-13T03:52:31.165Z,8.93
2017-06-13T03:54:57.126Z,10.23
2017-06-13T03:57:23.137Z,11.17
2017-06-13T03:59:49.131Z,10.10
2017-06-13T04:02:15.127Z,13.60
2017-06-13T04:04:41.126Z,13.53
2017-06-13T04:07:07.111Z,9.80
2017-06-13T04:09:33.815Z,8.43
2017-06-13T04:11:59.810Z,8.43
2017-06-13T04:14:25.774Z,11.30
2017-06-13T04:16:51.770Z,9.30
2017-06-13T04:19:17.811Z,9.77
2017-06-13T04:21:43.771Z,8.53
2017-06-13T04:24:09.734Z,7.60
2017-06-13T04:26:35.742Z,14.27
2017-06-13T04:29:01.694Z,10.10
2017-06-13T04:31:28.398Z,15.37
2017-06-13T04:33:54.413Z,10.30
2017-06-13T04:36:20.411Z,11.10
2017-06-13T04:38:46.385Z,14.13
2017-06-13T04:41:12.386Z,9.03
2017-06-13T04:43:38.342Z,9.37
2017-06-13T04:46:04.307Z,9.40
2017-06-13T04:48:30.315Z,9.93
2017-06-13T04:50:56.272Z,10.33
2017-06-13T04:53:22.282Z,13.60
2017-06-13T04:55:48.297Z,10.33
2017-06-13T04:58:14.260Z,8.80
2017-06-13T05:00:40.209Z,7.63
2017-06-13T05:03:06.203Z,9.10
2017-06-13T05:05:32.188Z,10.30
2017-06-13T05:07:58.147Z,10.20
2017-06-13T05:10:24.150Z,8.70
2017-06-13T05:12:50.872Z,8.43
2017-06-13T05:15:17.590Z,10.47
2017-06-13T05:17:43.586Z,14.13
2017-06-13T05:20:09.541Z,8.00
2017-06-13T05:22:35.501Z,11.30
2017-06-13T05:25:01.507Z,12.10
2017-06-13T05:27:27.465Z,10.20
2017-06-13T05:29:53.454Z,8.20
2017-06-13T05:32:20.223Z,9.40
2017-06-13T05:34:46.178Z,8.73
2017-06-13T05:37:12.138Z,9.37
2017-06-13T05:39:38.154Z,10.53
2017-06-13T05:42:04.114Z,12.33
2017-06-13T05:44:30.122Z,9.93
2017-06-13T05:46:56.161Z,9.20
2017-06-13T05:49:22.134Z,7.80
2017-06-13T05:51:48.105Z,8.43
2017-06-13T05:54:14.104Z,11.20
2017-06-13T05:56:40.069Z,10.80
2017-06-13T05:59:06.078Z,8.83
2017-06-13T06:01:32.786Z,10.00
2017-06-13T06:03:58.746Z,13.87
2017-06-13T06:06:24.758Z,11.20
2017-06-13T06:08:50.734Z,7.53
2017-06-13T06:11:17.450Z,6.90
2017-06-13T06:13:44.189Z,15.20
2017-06-13T06:16:10.894Z,10.80
2017-06-13T06:18:36.850Z,9.40
2017-06-13T06:21:02.842Z,9.97
2017-06-13T06:23:28.851Z,10.03
2017-06-13T06:25:54.822Z,7.90
2017-06-13T06:28:20.786Z,9.03
2017-06-13T06:30:46.770Z,11.67
2017-06-13T06:33:12.734Z,8.40
2017-06-13T06:35:38.741Z,7.60
2017-06-13T06:38:04.701Z,10.40
2017-06-13T06:40:30.670Z,8.40
2017-06-13T06:43:03.714Z,8.60
2017-06-13T06:45:29.678Z,7.30
2017-06-13T06:47:56.378Z,12.50
2017-06-13T06:50:22.424Z,10.73
2017-06-13T06:52:48.455Z,9.60
2017-06-13T06:55:14.443Z,6.17
2017-06-13T06:57:40.435Z,10.03
2017-06-13T07:00:07.222Z,10.37
2017-06-13T07:02:33.183Z,6.60
2017-06-13T07:04:59.177Z,5.93
2017-06-13T07:07:25.934Z,8.70
2017-06-13T07:09:51.898Z,7.47
2017-06-13T07:12:17.863Z,9.00
2017-06-13T07:14:43.858Z,10.57
2017-06-13T07:17:09.890Z,10.40
2017-06-13T07:19:35.854Z,7.00
2017-06-13T07:22:01.818Z,6.80
2017-06-13T07:24:27.830Z,12.97
2017-06-13T07:26:53.806Z,12.33
2017-06-13T07:29:19.782Z,6.20
2017-06-13T07:31:46.570Z,5.63
2017-06-13T07:34:12.531Z,6.03
2017-06-13T07:36:38.469Z,8.70
2017-06-13T07:39:04.458Z,5.83
2017-06-13T07:41:30.469Z,5.70
2017-06-13T07:43:56.421Z,8.93
2017-06-13T07:46:22.447Z,7.00
2017-06-13T07:48:48.481Z,7.50
2017-06-13T07:51:15.206Z,7.83
2017-06-13T07:53:41.914Z,5.93
2017-06-13T07:56:08.633Z,7.43
2017-06-13T07:58:34.605Z,9.57
2017-06-13T08:01:00.613Z,6.67
2017-06-13T08:03:26.642Z,5.30
2017-06-13T08:05:52.630Z,5.23
2017-06-13T08:08:18.609Z,7.93
2017-06-13T08:10:44.598Z,5.50
2017-06-13T08:13:11.326Z,6.50
2017-06-13T08:15:38.026Z,4.43
2017-06-13T08:18:04.028Z,6.60
2017-06-13T08:20:29.990Z,4.70
2017-06-13T08:22:55.954Z,6.67
2017-06-13T08:25:21.993Z,7.50
2017-06-13T08:27:47.960Z,4.87
2017-06-13T08:30:13.922Z,8.30
2017-06-13T08:32:39.921Z,5.13
2017-06-13T08:35:06.626Z,4.10
2017-06-13T08:37:32.577Z,7.77
2017-06-13T08:39:58.577Z,3.80
2017-06-13T08:42:24.538Z,6.30
2017-06-13T08:44:50.510Z,9.17
2017-06-13T08:47:16.519Z,8.57
2017-06-13T08:49:42.484Z,4.20
2017-06-13T08:52:08.486Z,4.30
2017-06-13T08:54:34.479Z,6.80
2017-06-13T08:57:00.470Z,11.13
2017-06-13T08:59:26.442Z,5.57
2017-06-13T09:01:52.493Z,7.60
2017-06-13T09:04:18.453Z,8.90
2017-06-13T09:06:44.465Z,7.80
2017-06-13T09:09:10.421Z,8.30
2017-06-13T09:11:36.395Z,6.37
2017-06-13T09:14:02.399Z,5.83
2017-06-13T09:16:28.362Z,7.47
2017-06-13T09:18:54.320Z,4.70
2017-06-13T09:21:20.343Z,4.53
2017-06-13T09:23:46.322Z,5.27
2017-06-13T09:26:12.282Z,4.40
2017-06-13T09:28:38.270Z,4.80
2017-06-13T09:31:04.241Z,8.20
2017-06-13T09:33:30.247Z,5.60
2017-06-13T09:35:56.214Z,3.47
2017-06-13T09:38:22.191Z,3.37
2017-06-13T09:40:48.186Z,7.17
2017-06-13T09:43:14.159Z,3.40
2017-06-13T09:45:40.853Z,4.60
2017-06-13T09:48:06.872Z,4.13
2017-06-13T09:50:32.837Z,6.97
2017-06-13T09:52:58.834Z,2.97
2017-06-13T09:55:24.883Z,3.53
2017-06-13T09:57:50.879Z,4.70
2017-06-13T10:00:18.169Z,2.93
2017-06-13T10:02:45.083Z,10.00
2017-06-13T10:05:11.072Z,3.70
2017-06-13T10:07:37.126Z,8.03
2017-06-13T10:10:03.259Z,3.50
2017-06-13T10:12:29.270Z,2.33
2017-06-13T10:14:55.370Z,3.70
2017-06-13T10:17:22.157Z,6.23
2017-06-13T10:19:48.126Z,3.83
2017-06-13T10:22:14.166Z,2.10
2017-06-13T10:24:40.128Z,3.90
2017-06-13T10:27:06.880Z,2.80
2017-06-13T10:29:32.837Z,2.40
2017-06-13T10:31:58.795Z,2.20
2017-06-13T10:34:24.777Z,3.03
2017-06-13T10:36:50.744Z,3.87
2017-06-13T10:39:16.802Z,4.33
2017-06-13T10:41:42.754Z,6.70
2017-06-13T10:44:08.745Z,5.00
2017-06-13T10:46:34.742Z,4.13
2017-06-13T10:49:00.702Z,4.17
2017-06-13T10:51:26.655Z,3.70
2017-06-13T10:53:52.665Z,4.07
2017-06-13T10:56:19.762Z,3.10
2017-06-13T10:58:45.738Z,2.60
2017-06-13T11:01:11.746Z,3.73
2017-06-13T11:03:37.709Z,3.50
2017-06-13T11:06:03.662Z,3.40
2017-06-13T11:08:29.703Z,6.30
2017-06-13T11:10:55.678Z,3.73
2017-06-13T11:13:21.657Z,3.70
2017-06-13T11:15:47.654Z,4.97
2017-06-13T11:18:13.617Z,4.97
2017-06-13T11:20:39.602Z,4.77
2017-06-13T11:23:05.605Z,5.60
2017-06-13T11:25:31.566Z,4.43
2017-06-13T11:27:57.526Z,4.23
2017-06-13T11:30:23.542Z,4.53
2017-06-13T11:32:49.526Z,6.07
2017-06-13T11:35:15.494Z,4.00
2017-06-13T11:37:41.512Z,6.20
2017-06-13T11:40:08.219Z,4.87
2017-06-13T11:42:34.186Z,4.57
2017-06-13T11:45:00.197Z,6.23
2017-06-13T11:47:26.161Z,5.60
2017-06-13T11:49:52.133Z,5.30
2017-06-13T11:52:18.141Z,4.10
2017-06-13T11:54:44.118Z,6.10
2017-06-13T11:57:10.074Z,8.20
2017-06-13T11:59:36.066Z,4.50
2017-06-13T12:02:02.090Z,4.77
2017-06-13T12:04:28.082Z,4.13
2017-06-13T12:06:54.054Z,7.13
2017-06-13T12:09:20.111Z,5.93
2017-06-13T12:11:46.074Z,6.10
2017-06-13T12:16:44.698Z,5.83
2017-06-13T12:19:10.670Z,8.70
2017-06-13T12:21:36.638Z,7.17
2017-06-13T12:24:02.651Z,4.40
2017-06-13T12:26:29.374Z,6.47
2017-06-13T12:28:56.088Z,7.63
2017-06-13T12:31:22.119Z,6.63
2017-06-13T12:33:48.839Z,6.73
2017-06-13T12:36:15.534Z,7.20
2017-06-13T12:38:41.533Z,7.43
2017-06-13T12:41:07.514Z,4.97
2017-06-13T12:43:33.474Z,5.03
2017-06-13T12:45:59.467Z,6.17
2017-06-13T12:48:25.486Z,5.90
2017-06-13T12:50:51.446Z,7.37
2017-06-13T12:53:17.414Z,6.97
2017-06-13T12:55:43.410Z,9.00
2017-06-13T12:58:09.381Z,6.03
2017-06-13T13:00:35.343Z,4.63
2017-06-13T13:03:01.359Z,6.90
2017-06-13T13:05:28.097Z,7.43
2017-06-13T13:07:54.066Z,4.50
2017-06-13T13:10:20.066Z,6.73
2017-06-13T13:12:46.030Z,4.53
2017-06-13T13:15:12.010Z,4.43
2017-06-13T13:17:38.753Z,6.53
2017-06-13T13:20:12.619Z,6.20
2017-06-13T13:22:38.625Z,5.53
2017-06-13T13:25:04.581Z,6.50
2017-06-13T13:27:30.634Z,6.20
2017-06-13T13:29:56.594Z,6.50
2017-06-13T13:32:22.562Z,6.83
2017-06-13T13:34:48.569Z,4.90
2017-06-13T13:37:14.538Z,5.57
2017-06-13T13:39:40.494Z,6.07
2017-06-13T13:42:06.502Z,4.60
2017-06-13T13:44:32.457Z,5.87
2017-06-13T13:46:58.434Z,7.70
2017-06-13T13:49:24.450Z,5.70
2017-06-13T13:51:50.426Z,5.83
2017-06-13T13:54:16.390Z,6.73
2017-06-13T13:56:42.402Z,5.07
2017-06-13T13:59:08.362Z,6.80
2017-06-13T14:01:34.314Z,5.23
2017-06-13T14:04:00.323Z,5.00
2017-06-13T14:06:26.282Z,12.20
2017-06-13T14:08:52.249Z,3.87
2017-06-13T14:11:18.290Z,4.20
2017-06-13T14:13:44.268Z,6.53
2017-06-13T14:16:10.235Z,7.50
2017-06-13T14:18:36.990Z,4.03
2017-06-13T14:21:02.950Z,6.63
2017-06-13T14:23:28.910Z,6.03
2017-06-13T14:25:54.935Z,11.90
2017-06-13T14:28:20.932Z,11.27
2017-06-13T14:30:46.886Z,3.90
2017-06-13T14:33:12.895Z,4.20
2017-06-13T14:35:45.890Z,9.00
2017-06-13T14:38:12.622Z,6.43
2017-06-13T14:40:38.578Z,4.23
2017-06-13T14:43:04.582Z,5.83
2017-06-13T14:45:30.544Z,3.70
2017-06-13T14:47:56.521Z,4.07
2017-06-13T14:50:22.525Z,5.73
2017-06-13T14:52:48.486Z,6.70
2017-06-13T14:55:14.493Z,7.90
2017-06-13T14:57:40.458Z,4.60
2017-06-13T15:00:06.409Z,6.10
2017-06-13T15:02:32.402Z,4.83
2017-06-13T15:04:59.141Z,5.00
2017-06-13T15:07:25.164Z,5.00
2017-06-13T15:09:51.146Z,4.57
2017-06-13T15:12:17.118Z,7.10
2017-06-13T15:14:43.106Z,6.20
2017-06-13T15:17:09.074Z,5.70
2017-06-13T15:19:35.108Z,4.93
2017-06-13T15:22:01.070Z,5.27
2017-06-13T15:24:27.028Z,4.97
2017-06-13T15:26:53.038Z,7.00
2017-06-13T15:29:19.390Z,6.10
2017-06-13T15:31:45.353Z,3.33
2017-06-13T15:34:11.374Z,4.03
2017-06-13T15:36:37.368Z,3.90
2017-06-13T15:39:03.369Z,3.73
2017-06-13T15:41:29.358Z,5.20
2017-06-13T15:43:56.102Z,5.20
2017-06-13T15:46:22.119Z,5.10
2017-06-13T15:48:48.075Z,6.00
2017-06-13T15:51:14.047Z,4.63
2017-06-13T15:53:40.058Z,4.30
2017-06-13T15:56:06.022Z,5.87
2017-06-13T15:58:32.722Z,6.10
2017-06-13T16:00:58.722Z,3.80
2017-06-13T16:03:31.783Z,5.23
2017-06-13T16:05:57.741Z,5.33
2017-06-13T16:08:23.785Z,7.23
2017-06-13T16:10:49.774Z,5.60
2017-06-13T16:13:15.746Z,6.23
2017-06-13T16:15:41.806Z,7.60
2017-06-13T16:18:07.810Z,4.37
2017-06-13T16:20:33.757Z,4.80
2017-06-13T16:22:59.721Z,4.10
2017-06-13T16:25:25.733Z,7.50
2017-06-13T16:27:51.706Z,4.10
2017-06-13T16:30:18.434Z,7.50
2017-06-13T16:32:44.502Z,4.67
2017-06-13T16:35:10.458Z,4.10
2017-06-13T16:37:37.190Z,4.20
2017-06-13T16:40:03.974Z,6.20
2017-06-13T16:42:29.987Z,5.33
2017-06-13T16:44:55.949Z,4.20
2017-06-13T16:47:21.978Z,4.87
2017-06-13T16:49:47.958Z,8.30
2017-06-13T16:52:14.658Z,3.63
2017-06-13T16:54:40.719Z,4.10
2017-06-13T16:57:06.682Z,4.07
2017-06-13T16:59:32.641Z,3.50
2017-06-13T17:01:58.681Z,4.73
2017-06-13T17:04:24.723Z,6.20
2017-06-13T17:06:51.475Z,4.03
2017-06-13T17:09:17.499Z,3.67
2017-06-13T17:11:43.466Z,3.87
2017-06-13T17:14:09.434Z,3.87
2017-06-13T17:16:36.035Z,3.90
2017-06-13T17:19:02.005Z,3.10
2017-06-13T17:21:28.725Z,4.23
2017-06-13T17:23:54.726Z,7.13
2017-06-13T17:26:20.714Z,3.07
2017-06-13T17:28:46.874Z,3.17
2017-06-13T17:31:13.582Z,3.37
2017-06-13T17:33:39.589Z,2.93
2017-06-13T17:36:05.591Z,4.43
2017-06-13T17:38:31.541Z,4.00
2017-06-13T17:40:57.498Z,3.50
2017-06-13T17:43:23.536Z,2.67
2017-06-13T17:45:49.682Z,3.93
2017-06-13T17:48:15.717Z,4.20
2017-06-13T17:50:41.698Z,2.93
2017-06-13T17:53:07.657Z,2.47
2017-06-13T17:55:33.646Z,3.10
2017-06-13T17:57:59.602Z,4.10
2017-06-13T18:00:25.626Z,4.40
2017-06-13T18:02:51.622Z,3.20
2017-06-13T18:05:18.326Z,4.70
2017-06-13T18:07:44.318Z,5.50
2017-06-13T18:10:10.273Z,3.53
2017-06-13T18:12:36.226Z,5.10
2017-06-13T18:15:02.232Z,3.93
2017-06-13T18:17:28.221Z,3.93
2017-06-13T18:19:54.198Z,2.63
2017-06-13T18:22:20.213Z,3.77
2017-06-13T18:24:46.195Z,6.50
2017-06-13T18:27:19.102Z,3.03
2017-06-13T18:29:45.106Z,5.13
2017-06-13T18:32:11.085Z,5.03
2017-06-13T18:34:37.834Z,3.27
2017-06-13T18:37:03.797Z,3.97
2017-06-13T18:39:29.766Z,4.80
2017-06-13T18:41:55.778Z,3.47
2017-06-13T18:44:21.750Z,4.50
2017-06-13T18:46:47.755Z,2.90
2017-06-13T18:49:14.468Z,3.73
2017-06-13T18:51:40.434Z,2.90
2017-06-13T18:54:06.418Z,4.07
2017-06-13T18:56:32.374Z,3.10
2017-06-13T18:58:58.362Z,4.30
2017-06-13T19:01:24.390Z,4.37
2017-06-13T19:03:50.400Z,3.13
2017-06-13T19:06:16.401Z,3.70
2017-06-13T19:08:42.389Z,3.50
2017-06-13T19:11:08.346Z,2.97
2017-06-13T19:13:34.337Z,2.83
2017-06-13T19:16:00.337Z,3.23
2017-06-13T19:18:26.296Z,2.70
2017-06-13T19:20:53.006Z,3.30
2017-06-13T19:23:19.770Z,4.43
2017-06-13T19:25:45.725Z,2.33
2017-06-13T19:28:11.677Z,9.20
2017-06-13T19:30:37.657Z,3.90
2017-06-13T19:33:04.363Z,3.97
2017-06-13T19:35:30.369Z,2.47
2017-06-13T19:37:56.326Z,4.17
2017-06-13T19:40:22.295Z,3.17
2017-06-13T19:42:48.294Z,3.00
2017-06-13T19:45:14.254Z,2.63
2017-06-13T19:47:40.230Z,3.33
2017-06-13T19:50:06.246Z,4.50
2017-06-13T19:52:32.946Z,2.90
2017-06-13T19:54:58.902Z,3.50
2017-06-13T19:57:24.931Z,4.00
2017-06-13T19:59:50.935Z,3.67
2017-06-13T20:02:16.939Z,3.50
2017-06-13T20:04:42.905Z,3.30
2017-06-13T20:07:08.900Z,3.23
2017-06-13T20:09:34.912Z,2.90
2017-06-13T20:12:01.041Z,3.00
2017-06-13T20:14:28.016Z,4.40
2017-06-13T20:16:54.285Z,3.40
2017-06-13T20:19:20.293Z,4.23
2017-06-13T20:21:46.494Z,3.87
2017-06-13T20:24:12.712Z,4.03
2017-06-13T20:26:38.906Z,4.60
2017-06-13T20:29:11.254Z,4.67
2017-06-13T20:31:37.230Z,3.93
2017-06-13T20:34:03.450Z,4.30
2017-06-13T20:36:29.417Z,3.97
2017-06-13T20:38:55.387Z,4.33
2017-06-13T20:41:21.439Z,3.63
2017-06-13T20:43:48.178Z,4.70
2017-06-13T20:46:14.877Z,4.23
2017-06-13T20:48:41.001Z,4.27
2017-06-13T20:51:06.959Z,3.90
2017-06-13T20:53:32.914Z,4.40
2017-06-13T20:55:58.914Z,3.97
2017-06-13T20:58:24.886Z,4.90
2017-06-13T21:00:50.894Z,5.73
2017-06-13T21:03:16.906Z,5.17
2017-06-13T21:05:42.883Z,5.13
2017-06-13T21:08:09.630Z,5.37
2017-06-13T21:10:35.638Z,5.13
2017-06-13T21:13:01.637Z,5.70
2017-06-13T21:15:27.613Z,6.93
2017-06-13T21:17:53.614Z,5.87
2017-06-13T21:20:19.626Z,5.03
2017-06-13T21:22:45.641Z,5.83
2017-06-13T21:25:11.602Z,5.27
2017-06-13T21:27:37.566Z,9.20
2017-06-13T21:30:04.328Z,5.60
2017-06-13T21:32:30.286Z,5.03
2017-06-13T21:34:56.254Z,5.00
2017-06-13T21:37:22.306Z,4.93
2017-06-13T21:39:48.276Z,5.20
2017-06-13T21:42:14.238Z,5.13
2017-06-13T21:44:40.222Z,4.97
2017-06-13T21:47:06.178Z,6.23
2017-06-13T21:49:32.173Z,4.50
2017-06-13T21:51:58.869Z,4.20
2017-06-13T21:54:24.833Z,5.30
2017-06-13T21:56:50.867Z,4.23
2017-06-13T21:59:16.847Z,4.67
2017-06-13T22:01:42.834Z,4.20
2017-06-13T22:04:09.582Z,5.07
2017-06-13T22:06:35.542Z,4.83
2017-06-13T22:09:01.506Z,4.63
2017-06-13T22:11:27.506Z,4.30
2017-06-13T22:13:53.489Z,4.90
2017-06-13T22:16:20.214Z,4.47
2017-06-13T22:18:46.963Z,4.13
2017-06-13T22:21:12.930Z,5.67
2017-06-13T22:23:38.934Z,5.30
2017-06-13T22:26:04.894Z,4.40
2017-06-13T22:28:30.858Z,4.37
2017-06-13T22:30:56.910Z,6.00
2017-06-13T22:33:22.887Z,6.60
2017-06-13T22:35:49.611Z,4.73
2017-06-13T22:38:16.339Z,4.90
2017-06-13T22:40:43.038Z,11.00
2017-06-13T22:43:09.038Z,4.47
2017-06-13T22:45:34.994Z,6.43
2017-06-13T22:48:00.953Z,4.93
2017-06-13T22:50:26.970Z,5.03
2017-06-13T22:52:52.970Z,4.40
2017-06-13T22:55:18.928Z,5.13
2017-06-13T22:57:44.934Z,6.40
2017-06-13T23:00:11.634Z,6.20
2017-06-13T23:02:45.114Z,5.20
2017-06-13T23:05:11.082Z,5.17
2017-06-13T23:07:37.034Z,5.27
2017-06-13T23:10:03.034Z,5.80
2017-06-13T23:12:29.021Z,5.07
2017-06-13T23:14:54.998Z,5.30
2017-06-13T23:17:21.019Z,5.60
2017-06-13T23:19:46.979Z,8.90
2017-06-13T23:22:12.937Z,7.13
2017-06-13T23:24:38.905Z,7.20
2017-06-13T23:27:05.622Z,6.97
2017-06-13T23:29:31.621Z,6.23
2017-06-13T23:31:57.574Z,7.00
2017-06-13T23:34:23.563Z,7.60
2017-06-13T23:36:50.653Z,5.93
2017-06-13T23:39:16.622Z,6.40
2017-06-13T23:41:42.582Z,5.53
2017-06-13T23:44:08.586Z,4.83
2017-06-13T23:46:34.546Z,7.20
2017-06-13T23:49:00.546Z,4.70
2017-06-13T23:51:27.250Z,5.73
2017-06-13T23:53:53.220Z,5.77
2017-06-13T23:56:19.218Z,6.73
2017-06-13T23:58:45.173Z,5.50
